| Date | Time | Temp. (oF) | Dew Point (oF) | Rel. Hum. (%) | Press. (in.) | Wind Dir. | Wind Speed (mph) | Hourly Rainfall (in.) |
|
|---|---|---|---|---|---|---|---|---|---|
| 1 | 11/27 | 00:00 | 34 | 25 | 71 | 30.28 | E | 1 | 0.00 |
| 2 | 11/26 | 23:00 | 36 | 27 | 70 | 30.29 | NE | 3 | 0.00 |
| 3 | 11/26 | 22:00 | 37 | 27 | 68 | 30.30 | ENE | 3 | 0.00 |
| 4 | 11/26 | 21:00 | 38 | 26 | 63 | 30.29 | SSE | 3 | 0.00 |
| 5 | 11/26 | 20:00 | 38 | 26 | 64 | 30.30 | SE | 2 | 0.00 |
| 6 | 11/26 | 19:00 | 37 | 25 | 64 | 30.28 | S | 4 | 0.00 |
| 7 | 11/26 | 18:00 | 36 | 24 | 63 | 30.27 | SSE | 3 | 0.00 |
| 8 | 11/26 | 17:00 | 38 | 24 | 59 | 30.25 | SSE | 4 | 0.00 |
| 9 | 11/26 | 16:00 | 40 | 24 | 54 | 30.24 | SE | 4 | 0.00 |
| 10 | 11/26 | 15:00 | 42 | 24 | 50 | 30.25 | S | 6 | 0.00 |
| 11 | 11/26 | 14:00 | 42 | 23 | 48 | 30.25 | S | 7 | 0.00 |
| 12 | 11/26 | 13:00 | 39 | 21 | 50 | 30.26 | SSW | 7 | 0.00 |
| 13 | 11/26 | 12:00 | 36 | 21 | 56 | 30.31 | ESE | 5 | 0.00 |
| 14 | 11/26 | 11:00 | 33 | 22 | 66 | 30.36 | S | 8 | 0.00 |
| 15 | 11/26 | 10:00 | 30 | 20 | 67 | 30.37 | S | 3 | 0.00 |
| 16 | 11/26 | 09:00 | 27 | 21 | 80 | 30.37 | S | 1 | 0.00 |
| 17 | 11/26 | 08:00 | 23 | 19 | 87 | 30.37 | ENE | 0 | 0.00 |
| 18 | 11/26 | 07:00 | 23 | 19 | 88 | 30.37 | E | 0 | 0.00 |
| 19 | 11/26 | 06:00 | 22 | 19 | 90 | 30.37 | NE | 0 | 0.00 |
| 20 | 11/26 | 05:00 | 21 | 19 | 93 | 30.35 | NE | 1 | 0.00 |
| 21 | 11/26 | 04:00 | 19 | 17 | 93 | 30.35 | N | 0 | 0.00 |
| 22 | 11/26 | 03:00 | 19 | 16 | 90 | 30.36 | SSE | 0 | 0.00 |
| 23 | 11/26 | 02:00 | 19 | 16 | 89 | 30.37 | SSE | 0 | 0.00 |
| 24 | 11/26 | 01:00 | 19 | 15 | 87 | 30.36 | SW | 0 | 0.00 |